Overview Statistics Trail Chart Weather Telemetry Raw packets
 

This is the latest recevied weather packets stored in our database for station/object WABO. If no packets are shown the sender has not sent any weather packets the latest 10 day(s).

<< 1 2 3 4 >>
Time Temp. Humidity Pressure Rain* Wind** Luminosity Snow
1788360550 25° C 94% 1 hPa 0 mm - - -
1788358580 25° C 94% 1 hPa 0 mm - - -
1788352660 26.11° C 94% 1 hPa 0 mm - - -
1788350689 26.11° C 94% 1 hPa 0 mm - - -
1788348717 26.11° C 94% 1 hPa 0 mm - - -
1788346744 26.11° C 94% 1 hPa 0 mm - - -
1788344777 27.78° C 84% 1 hPa 0 mm - - -
1788342797 27.78° C 84% 1 hPa 0 mm - - -
1788340828 27.78° C 84% 1 hPa 0 mm - - -
1788338856 30° C 70% 1 hPa 0 mm - - -
1788336886 30° C 70% 1 hPa 0 mm - - -
1788334910 31.11° C 70% 1 hPa 0 mm - - -
1788332920 31.11° C 75% 1 hPa 0 mm - - -
1788330948 31.11° C 75% 1 hPa 0 mm - - -
1788328975 30° C 75% 1 hPa 0 mm - - -
1788327008 27.78° C 84% 1 hPa 0 mm - - -
1788325037 30° C 70% 1 hPa 0 mm - - -
1788323062 31.11° C 70% 1 hPa 0 mm - - -
1788321094 31.11° C 75% 1 hPa 0 mm - - -
1788319128 31.11° C 75% 1 hPa 0 mm - - -
1788317162 32.22° C 71% 1 hPa 0 mm - - -
1788315204 32.22° C 71% 1 hPa 0 mm - - -
1788313237 32.78° C 63% 1 hPa 0 mm - - -
1788311284 31.11° C 66% 1 hPa 0 mm - - -
1788309319 31.11° C 66% 1 hPa 0 mm - - -

* Rain latest hour (hover to see other rain measurements)
** Current wind speed in m/s (hover to see current wind gust speed)